Time;durP1;ratioP1;P1;durP2;ratioP2;P2;SDS_P1;SDS_P2;PMS_P1;PMS_P2;Temp;Humidity;BMP_temperature;BMP_pressure;BME280_temperature;BME280_humidity;BME280_pressure;Samples;Min_cycle;Max_cycle;Signal;HPM_P1;HPM_P2
2022/05/25 00:00:06;;;;;;;24.03;20.00;;;;;;;;;;764142;177;916957;-69
2022/05/25 00:02:31;;;;;;;23.40;20.20;;;;;;;;;;769023;177;918236;-67
2022/05/25 00:04:57;;;;;;;22.47;18.77;;;;;;;;;;766872;177;920078;-68
2022/05/25 00:07:23;;;;;;;22.97;20.53;;;;;;;;;;770140;177;919176;-68
2022/05/25 00:09:49;;;;;;;27.40;20.23;;;;;;;;;;776478;180;916789;-67
2022/05/25 00:12:15;;;;;;;23.17;20.50;;;;;;;;;;771548;179;915859;-68
2022/05/25 00:14:40;;;;;;;22.47;20.07;;;;;;;;;;771747;180;917241;-67
2022/05/25 00:17:06;;;;;;;26.40;21.43;;;;;;;;;;766316;181;915808;-67
2022/05/25 00:22:04;;;;;;;24.13;20.93;;;;;;;;;;770528;180;919149;-67
2022/05/25 00:24:30;;;;;;;23.43;20.17;;;;;;;;;;769418;182;918827;-68
2022/05/25 00:26:55;;;;;;;26.27;21.47;;;;;;;;;;772241;181;919379;-68
2022/05/25 00:29:21;;;;;;;30.43;21.70;;;;;;;;;;763455;181;919364;-67
2022/05/25 00:31:47;;;;;;;27.50;20.10;;;;;;;;;;761544;181;919185;-69
2022/05/25 00:34:13;;;;;;;28.02;22.70;;;;;;;;;;774583;181;918965;-68
2022/05/25 00:36:39;;;;;;;27.70;22.93;;;;;;;;;;764925;181;918587;-67
2022/05/25 00:39:05;;;;;;;29.60;21.47;;;;;;;;;;757506;183;1020909;-69
2022/05/25 00:41:31;;;;;;;25.50;21.07;;;;;;;;;;765646;180;919193;-68
2022/05/25 00:43:57;;;;;;;25.67;20.17;;;;;;;;;;770258;181;917477;-68
2022/05/25 00:46:23;;;;;;;23.83;19.90;;;;;;;;;;771427;179;919764;-68
2022/05/25 00:48:50;;;;;;;23.70;19.77;;;;;;;;;;770824;178;934464;-68
2022/05/25 00:51:16;;;;;;;20.60;18.10;;;;;;;;;;770170;183;919295;-68
2022/05/25 00:53:43;;;;;;;22.93;20.03;;;;;;;;;;763064;179;920394;-68
2022/05/25 00:56:08;;;;;;;23.87;20.13;;;;;;;;;;768585;177;918816;-68
2022/05/25 00:58:34;;;;;;;24.67;21.10;;;;;;;;;;771342;180;919179;-67
2022/05/25 01:01:00;;;;;;;22.73;20.33;;;;;;;;;;778713;179;918177;-68
2022/05/25 01:03:26;;;;;;;23.43;19.90;;;;;;;;;;765018;177;918589;-68
2022/05/25 01:05:53;;;;;;;24.00;21.40;;;;;;;;;;768358;180;919767;-68
2022/05/25 01:08:22;;;;;;;25.90;20.27;;;;;;;;;;777939;179;919039;-69
2022/05/25 01:10:51;;;;;;;25.73;22.57;;;;;;;;;;768675;177;919194;-68
2022/05/25 01:13:19;;;;;;;29.70;22.40;;;;;;;;;;768267;180;920271;-68
2022/05/25 01:15:46;;;;;;;25.27;22.20;;;;;;;;;;768103;181;919332;-68
2022/05/25 01:18:11;;;;;;;27.20;22.57;;;;;;;;;;770666;180;919023;-68
2022/05/25 01:20:40;;;;;;;29.57;20.30;;;;;;;;;;765340;178;918680;-68
2022/05/25 01:23:11;;;;;;;23.37;20.30;;;;;;;;;;763849;180;916482;-68
2022/05/25 01:25:54;;;;;;;23.20;19.80;;;;;;;;;;766618;179;915855;-68
2022/05/25 01:28:24;;;;;;;25.67;19.57;;;;;;;;;;748033;180;915493;-68
2022/05/25 01:30:50;;;;;;;23.90;20.27;;;;;;;;;;768356;180;915326;-68
2022/05/25 01:33:18;;;;;;;26.67;19.87;;;;;;;;;;761174;179;916634;-68
2022/05/25 01:35:59;;;;;;;22.15;19.77;;;;;;;;;;765994;181;915622;-68
2022/05/25 01:38:29;;;;;;;27.00;20.27;;;;;;;;;;770314;180;914981;-68
2022/05/25 01:40:57;;;;;;;24.10;18.73;;;;;;;;;;773651;180;935282;-68
2022/05/25 01:43:23;;;;;;;23.23;20.37;;;;;;;;;;775374;177;914486;-67
2022/05/25 01:45:50;;;;;;;27.37;21.17;;;;;;;;;;766277;177;918711;-68
2022/05/25 01:48:16;;;;;;;22.37;20.00;;;;;;;;;;764617;180;919066;-68
2022/05/25 01:50:42;;;;;;;22.43;18.50;;;;;;;;;;771248;179;919785;-67
2022/05/25 01:53:08;;;;;;;23.37;19.83;;;;;;;;;;768487;180;919097;-67
2022/05/25 01:55:34;;;;;;;22.33;19.97;;;;;;;;;;766097;180;918813;-67
2022/05/25 01:58:00;;;;;;;20.60;18.43;;;;;;;;;;768612;181;918784;-67
2022/05/25 02:00:28;;;;;;;21.40;19.20;;;;;;;;;;764587;180;919270;-68
2022/05/25 02:05:26;;;;;;;19.67;17.60;;;;;;;;;;763251;182;919553;-69
2022/05/25 02:07:52;;;;;;;20.40;18.23;;;;;;;;;;770536;178;920826;-68
2022/05/25 02:10:19;;;;;;;23.40;20.57;;;;;;;;;;771081;181;919166;-68
2022/05/25 02:13:05;;;;;;;22.43;18.90;;;;;;;;;;766961;179;917583;-69
2022/05/25 02:15:31;;;;;;;22.63;20.07;;;;;;;;;;774238;178;917397;-68
2022/05/25 02:18:14;;;;;;;23.43;18.80;;;;;;;;;;768817;179;940383;-65
2022/05/25 02:20:46;;;;;;;20.13;18.07;;;;;;;;;;769174;180;915404;-65
2022/05/25 02:23:14;;;;;;;23.33;20.10;;;;;;;;;;773656;180;915667;-66
2022/05/25 02:25:43;;;;;;;21.80;19.13;;;;;;;;;;766669;179;915585;-66
2022/05/25 02:28:09;;;;;;;22.77;20.40;;;;;;;;;;765549;177;919186;-65
2022/05/25 02:30:35;;;;;;;21.43;18.43;;;;;;;;;;767613;181;919513;-65
2022/05/25 02:33:02;;;;;;;22.57;20.17;;;;;;;;;;771177;181;918664;-66
2022/05/25 02:35:28;;;;;;;27.73;22.03;;;;;;;;;;767771;177;917931;-65
2022/05/25 02:37:54;;;;;;;26.07;20.50;;;;;;;;;;763302;180;918592;-65
2022/05/25 02:40:19;;;;;;;26.00;22.13;;;;;;;;;;772101;180;919665;-66
2022/05/25 02:42:46;;;;;;;28.37;21.63;;;;;;;;;;767939;180;919877;-65
2022/05/25 02:45:11;;;;;;;24.07;21.20;;;;;;;;;;770452;179;918914;-67
2022/05/25 02:47:37;;;;;;;24.57;21.97;;;;;;;;;;772109;178;918706;-67
2022/05/25 02:50:03;;;;;;;26.57;21.60;;;;;;;;;;764947;179;920197;-67
2022/05/25 02:52:29;;;;;;;24.00;21.00;;;;;;;;;;768610;180;1022374;-67
2022/05/25 02:54:55;;;;;;;29.48;22.60;;;;;;;;;;767296;180;918640;-67
2022/05/25 02:57:21;;;;;;;25.97;23.17;;;;;;;;;;770796;178;919111;-67
2022/05/25 02:59:46;;;;;;;24.37;20.70;;;;;;;;;;768528;180;919180;-67
2022/05/25 03:02:12;;;;;;;26.07;22.27;;;;;;;;;;763748;180;919686;-68
2022/05/25 03:04:38;;;;;;;29.70;21.50;;;;;;;;;;771722;180;918992;-68
2022/05/25 03:07:04;;;;;;;24.92;22.05;;;;;;;;;;767275;181;917768;-67
2022/05/25 03:09:30;;;;;;;28.17;23.00;;;;;;;;;;767536;178;922684;-65
2022/05/25 03:11:56;;;;;;;27.37;21.40;;;;;;;;;;771909;180;914213;-67
2022/05/25 03:14:22;;;;;;;26.83;22.93;;;;;;;;;;768113;177;915468;-68
2022/05/25 03:16:47;;;;;;;25.80;22.07;;;;;;;;;;764279;178;918791;-68
2022/05/25 03:19:13;;;;;;;28.87;20.77;;;;;;;;;;768296;180;919512;-68
2022/05/25 03:21:39;;;;;;;23.43;20.87;;;;;;;;;;771140;181;919464;-70
2022/05/25 03:24:05;;;;;;;26.33;22.80;;;;;;;;;;766328;177;918580;-69
2022/05/25 03:26:31;;;;;;;26.83;21.93;;;;;;;;;;768292;177;920599;-68
2022/05/25 03:28:57;;;;;;;25.37;22.43;;;;;;;;;;773679;180;913460;-69
2022/05/25 03:31:23;;;;;;;28.27;23.67;;;;;;;;;;764371;176;1146676;-69
2022/05/25 03:33:49;;;;;;;29.80;24.43;;;;;;;;;;767501;180;918629;-70
2022/05/25 03:36:14;;;;;;;31.97;24.80;;;;;;;;;;774513;179;916490;-70
2022/05/25 03:38:40;;;;;;;31.53;24.30;;;;;;;;;;766235;177;918406;-70
2022/05/25 03:41:06;;;;;;;26.48;23.50;;;;;;;;;;764340;180;919986;-70
2022/05/25 03:43:32;;;;;;;27.90;22.57;;;;;;;;;;771346;178;852122;-69
2022/05/25 03:45:58;;;;;;;30.23;24.97;;;;;;;;;;764659;180;919751;-70
2022/05/25 03:48:24;;;;;;;31.87;26.10;;;;;;;;;;764756;177;918960;-71
2022/05/25 03:50:50;;;;;;;28.27;24.10;;;;;;;;;;768438;178;918720;-71
2022/05/25 03:53:16;;;;;;;29.05;24.90;;;;;;;;;;772573;178;918027;-70
2022/05/25 03:55:42;;;;;;;32.57;25.07;;;;;;;;;;770198;178;919342;-70
2022/05/25 03:58:07;;;;;;;32.17;24.70;;;;;;;;;;770531;181;917818;-71
2022/05/25 04:00:33;;;;;;;35.57;24.00;;;;;;;;;;768499;180;918869;-71
2022/05/25 04:03:02;;;;;;;29.60;25.90;;;;;;;;;;770112;181;919909;-70
2022/05/25 04:05:25;;;;;;;25.90;23.15;;;;;;;;;;766894;182;918844;-71
2022/05/25 04:07:51;;;;;;;26.57;23.53;;;;;;;;;;775897;179;919222;-71
2022/05/25 04:10:17;;;;;;;32.33;24.80;;;;;;;;;;762542;180;920922;-70
2022/05/25 04:12:42;;;;;;;30.07;24.47;;;;;;;;;;772088;180;919456;-70
2022/05/25 04:15:09;;;;;;;32.67;25.20;;;;;;;;;;771637;180;919421;-71
2022/05/25 04:17:35;;;;;;;30.57;24.40;;;;;;;;;;771001;178;919124;-71
2022/05/25 04:20:00;;;;;;;37.37;26.87;;;;;;;;;;772648;179;919107;-71
2022/05/25 04:22:26;;;;;;;26.53;23.67;;;;;;;;;;769350;178;633380;-71
2022/05/25 04:24:52;;;;;;;31.67;25.73;;;;;;;;;;771698;180;631523;-71
2022/05/25 04:27:18;;;;;;;33.80;26.00;;;;;;;;;;764021;182;918854;-71
2022/05/25 04:29:44;;;;;;;28.27;23.57;;;;;;;;;;766142;180;920167;-71
2022/05/25 04:32:10;;;;;;;29.47;24.80;;;;;;;;;;772839;181;709135;-72
2022/05/25 04:34:36;;;;;;;26.30;23.40;;;;;;;;;;772137;177;921958;-71
2022/05/25 04:39:33;;;;;;;32.43;24.77;;;;;;;;;;773332;177;1019008;-70
2022/05/25 04:41:59;;;;;;;28.90;24.83;;;;;;;;;;776823;179;919251;-70
2022/05/25 04:44:25;;;;;;;28.03;23.10;;;;;;;;;;765792;181;919885;-71
2022/05/25 04:46:51;;;;;;;27.37;23.23;;;;;;;;;;763482;183;918975;-71
2022/05/25 04:49:16;;;;;;;26.93;23.40;;;;;;;;;;772976;179;918106;-72
2022/05/25 04:51:42;;;;;;;31.03;22.77;;;;;;;;;;766202;181;918749;-71
2022/05/25 04:54:08;;;;;;;27.77;23.03;;;;;;;;;;777404;178;1124360;-71
2022/05/25 04:59:06;;;;;;;28.02;22.95;;;;;;;;;;770885;181;930142;-71
2022/05/25 05:01:32;;;;;;;28.27;21.70;;;;;;;;;;765679;180;916003;-71
2022/05/25 05:03:57;;;;;;;27.03;22.30;;;;;;;;;;769844;179;920161;-71
2022/05/25 05:06:23;;;;;;;25.50;21.57;;;;;;;;;;775570;179;916064;-71
2022/05/25 05:08:49;;;;;;;33.67;23.57;;;;;;;;;;764944;181;915686;-72
2022/05/25 05:11:15;;;;;;;36.10;25.67;;;;;;;;;;764510;179;917937;-71
2022/05/25 05:13:42;;;;;;;32.83;23.80;;;;;;;;;;766902;180;923096;-69
2022/05/25 05:16:07;;;;;;;26.70;22.60;;;;;;;;;;775404;181;916208;-71
2022/05/25 05:18:33;;;;;;;25.10;21.03;;;;;;;;;;767048;179;916007;-72
2022/05/25 05:20:59;;;;;;;23.87;20.33;;;;;;;;;;764195;179;918301;-69
2022/05/25 05:23:25;;;;;;;23.80;19.47;;;;;;;;;;774283;177;919767;-70
2022/05/25 05:25:51;;;;;;;22.70;17.70;;;;;;;;;;770830;177;919256;-70
2022/05/25 05:28:17;;;;;;;26.10;17.80;;;;;;;;;;762020;184;918882;-70
2022/05/25 05:30:45;;;;;;;20.60;17.97;;;;;;;;;;769175;179;918665;-71
2022/05/25 05:33:11;;;;;;;22.90;17.97;;;;;;;;;;766707;181;917703;-70
2022/05/25 05:35:37;;;;;;;14.87;13.37;;;;;;;;;;763026;178;918443;-70
2022/05/25 05:38:03;;;;;;;18.30;14.80;;;;;;;;;;764863;180;919278;-71
2022/05/25 05:40:29;;;;;;;17.57;15.43;;;;;;;;;;763616;182;918663;-71
2022/05/25 05:42:54;;;;;;;19.83;15.50;;;;;;;;;;758820;183;919819;-70
2022/05/25 05:45:21;;;;;;;17.70;13.57;;;;;;;;;;757264;184;921403;-70
2022/05/25 05:47:50;;;;;;;15.70;13.00;;;;;;;;;;763567;183;918614;-71
2022/05/25 05:50:14;;;;;;;20.15;12.70;;;;;;;;;;754724;184;919631;-70
2022/05/25 05:52:40;;;;;;;14.47;12.50;;;;;;;;;;752923;182;1133966;-71
2022/05/25 05:55:06;;;;;;;12.50;11.00;;;;;;;;;;757596;182;919998;-70
2022/05/25 05:57:34;;;;;;;12.77;11.45;;;;;;;;;;756312;182;919283;-70
2022/05/25 05:59:57;;;;;;;16.67;12.20;;;;;;;;;;769800;177;1016055;-70
2022/05/25 06:02:23;;;;;;;15.63;12.43;;;;;;;;;;768214;179;915358;-70
2022/05/25 06:04:49;;;;;;;16.62;11.73;;;;;;;;;;769824;180;919759;-71
2022/05/25 06:07:15;;;;;;;15.20;11.27;;;;;;;;;;765430;178;915906;-70
2022/05/25 06:09:41;;;;;;;14.50;11.00;;;;;;;;;;766103;179;920447;-70
2022/05/25 06:12:07;;;;;;;13.10;11.70;;;;;;;;;;773253;180;918270;-70
2022/05/25 06:14:33;;;;;;;12.60;9.80;;;;;;;;;;763446;181;918326;-70
2022/05/25 06:19:33;;;;;;;8.10;7.20;;;;;;;;;;766201;182;904947;-71
2022/05/25 06:21:58;;;;;;;8.60;7.80;;;;;;;;;;767407;178;919144;-71
2022/05/25 06:24:23;;;;;;;8.73;7.70;;;;;;;;;;769751;180;919149;-71
2022/05/25 06:26:49;;;;;;;12.17;7.60;;;;;;;;;;766928;178;919109;-71
2022/05/25 06:29:17;;;;;;;7.32;5.55;;;;;;;;;;771856;177;915968;-71
2022/05/25 06:31:40;;;;;;;8.63;6.60;;;;;;;;;;766733;179;942568;-70
2022/05/25 06:34:06;;;;;;;7.70;6.40;;;;;;;;;;765691;178;919119;-68
2022/05/25 06:36:32;;;;;;;12.10;8.50;;;;;;;;;;771739;177;919082;-68
2022/05/25 06:38:58;;;;;;;11.10;8.97;;;;;;;;;;767696;177;918675;-69
2022/05/25 06:41:24;;;;;;;8.30;6.50;;;;;;;;;;767809;177;919376;-68
2022/05/25 06:43:50;;;;;;;11.07;6.50;;;;;;;;;;770258;180;918987;-67
2022/05/25 06:46:18;;;;;;;8.20;6.17;;;;;;;;;;772597;180;918557;-68
2022/05/25 06:48:42;;;;;;;7.87;6.17;;;;;;;;;;769636;178;1121213;-67
2022/05/25 06:51:08;;;;;;;8.00;5.47;;;;;;;;;;770765;178;919695;-67
2022/05/25 06:53:33;;;;;;;6.27;5.40;;;;;;;;;;775005;180;626131;-67
2022/05/25 06:55:59;;;;;;;8.07;6.20;;;;;;;;;;766079;178;920453;-67
2022/05/25 06:58:25;;;;;;;8.23;6.57;;;;;;;;;;768172;176;987183;-67
2022/05/25 07:00:51;;;;;;;8.80;6.00;;;;;;;;;;776161;178;919480;-68
2022/05/25 07:03:17;;;;;;;6.53;5.40;;;;;;;;;;768952;177;920818;-68
2022/05/25 07:05:43;;;;;;;7.43;5.90;;;;;;;;;;769047;180;918896;-69
2022/05/25 07:08:08;;;;;;;7.13;4.80;;;;;;;;;;773295;177;918979;-70
2022/05/25 07:10:34;;;;;;;8.50;6.43;;;;;;;;;;770298;180;706990;-69
2022/05/25 07:13:00;;;;;;;11.67;7.17;;;;;;;;;;769891;180;919038;-69
2022/05/25 07:15:26;;;;;;;11.47;7.23;;;;;;;;;;764628;181;918560;-68
2022/05/25 07:17:52;;;;;;;20.43;15.10;;;;;;;;;;772558;179;919224;-68
2022/05/25 07:20:18;;;;;;;41.53;29.33;;;;;;;;;;764151;181;919170;-66
2022/05/25 07:22:44;;;;;;;32.53;24.33;;;;;;;;;;766751;179;918841;-65
2022/05/25 07:25:09;;;;;;;22.93;20.90;;;;;;;;;;771652;180;923585;-65
2022/05/25 07:27:35;;;;;;;19.67;12.60;;;;;;;;;;768833;179;920384;-66
2022/05/25 07:30:01;;;;;;;14.63;9.70;;;;;;;;;;768535;180;922674;-66
2022/05/25 07:32:27;;;;;;;8.87;6.70;;;;;;;;;;774489;180;918044;-64
2022/05/25 07:34:55;;;;;;;9.10;7.43;;;;;;;;;;771444;177;872138;-64
2022/05/25 07:37:21;;;;;;;36.70;33.30;;;;;;;;;;766375;177;919111;-66
2022/05/25 07:39:49;;;;;;;53.23;47.93;;;;;;;;;;765654;180;918053;-65
2022/05/25 07:42:15;;;;;;;61.67;55.07;;;;;;;;;;769614;181;918937;-65
2022/05/25 07:44:41;;;;;;;36.83;33.10;;;;;;;;;;764270;177;919548;-64
2022/05/25 07:47:08;;;;;;;33.20;30.07;;;;;;;;;;764137;182;924837;-65
2022/05/25 07:49:34;;;;;;;19.57;17.77;;;;;;;;;;772753;181;919662;-65
2022/05/25 07:52:00;;;;;;;10.67;9.57;;;;;;;;;;767138;180;920794;-66
2022/05/25 07:54:26;;;;;;;9.43;8.53;;;;;;;;;;765666;181;919297;-66
2022/05/25 07:56:52;;;;;;;9.10;7.20;;;;;;;;;;772906;180;918902;-65
2022/05/25 07:59:18;;;;;;;8.15;6.22;;;;;;;;;;777632;180;916486;-64
2022/05/25 08:06:47;;;;;;;8.00;7.20;;;;;;;;;;766661;180;1018491;-68
2022/05/25 08:09:13;;;;;;;8.33;7.43;;;;;;;;;;776365;179;621190;-67
2022/05/25 08:11:39;;;;;;;5.80;5.20;;;;;;;;;;769121;178;919223;-64
2022/05/25 08:14:04;;;;;;;5.67;5.00;;;;;;;;;;768679;178;921150;-66
2022/05/25 08:16:30;;;;;;;4.83;4.23;;;;;;;;;;776035;182;919221;-64
2022/05/25 08:18:56;;;;;;;5.60;3.40;;;;;;;;;;765154;177;1124680;-64
2022/05/25 08:21:22;;;;;;;3.93;2.17;;;;;;;;;;773752;178;919145;-68
2022/05/25 08:23:48;;;;;;;2.80;1.80;;;;;;;;;;774993;182;919006;-66
2022/05/25 08:26:14;;;;;;;4.27;2.60;;;;;;;;;;772675;179;918743;-66
2022/05/25 08:28:40;;;;;;;4.90;3.63;;;;;;;;;;767024;179;918266;-65
2022/05/25 08:31:06;;;;;;;6.10;2.90;;;;;;;;;;768487;181;919246;-67
2022/05/25 08:33:31;;;;;;;4.90;1.90;;;;;;;;;;767703;181;918877;-69
2022/05/25 08:35:57;;;;;;;4.40;2.03;;;;;;;;;;770217;180;919826;-67
2022/05/25 08:38:23;;;;;;;5.10;2.10;;;;;;;;;;771210;180;919113;-67
2022/05/25 08:40:49;;;;;;;2.90;1.90;;;;;;;;;;775081;180;919793;-67
2022/05/25 08:43:16;;;;;;;8.80;2.87;;;;;;;;;;766071;180;918420;-66
2022/05/25 08:45:42;;;;;;;6.30;2.67;;;;;;;;;;767806;179;918538;-66
2022/05/25 08:48:08;;;;;;;6.23;3.30;;;;;;;;;;769834;181;919001;-65
2022/05/25 08:50:34;;;;;;;7.10;4.07;;;;;;;;;;767769;177;937032;-65
2022/05/25 08:53:00;;;;;;;7.63;3.60;;;;;;;;;;768833;179;919954;-66
2022/05/25 08:55:25;;;;;;;11.80;2.70;;;;;;;;;;773463;180;918534;-66
2022/05/25 08:57:51;;;;;;;5.50;3.20;;;;;;;;;;771993;180;918582;-64
2022/05/25 09:00:17;;;;;;;4.30;2.80;;;;;;;;;;768767;181;919638;-65
2022/05/25 09:02:51;;;;;;;4.50;2.77;;;;;;;;;;763110;181;919708;-63
2022/05/25 09:05:17;;;;;;;10.20;4.60;;;;;;;;;;773355;181;919418;-64
2022/05/25 09:07:43;;;;;;;8.90;5.30;;;;;;;;;;770387;178;919312;-64
2022/05/25 09:10:09;;;;;;;5.57;4.00;;;;;;;;;;762024;179;919097;-63
2022/05/25 09:12:35;;;;;;;3.25;2.80;;;;;;;;;;767183;179;919081;-62
2022/05/25 09:15:01;;;;;;;3.60;3.10;;;;;;;;;;773083;181;919487;-63
2022/05/25 09:17:27;;;;;;;4.93;3.50;;;;;;;;;;767315;179;919802;-63
2022/05/25 09:19:53;;;;;;;5.50;3.10;;;;;;;;;;767226;179;917884;-63
2022/05/25 09:22:19;;;;;;;5.57;3.50;;;;;;;;;;777224;176;919251;-61
2022/05/25 09:24:44;;;;;;;6.72;3.83;;;;;;;;;;769212;178;919592;-62
2022/05/25 09:27:12;;;;;;;6.40;4.00;;;;;;;;;;765546;178;960470;-61
2022/05/25 09:29:36;;;;;;;10.30;7.13;;;;;;;;;;772568;178;918064;-62
2022/05/25 09:32:02;;;;;;;14.20;8.73;;;;;;;;;;769664;177;919607;-63
2022/05/25 09:34:34;;;;;;;4.97;3.30;;;;;;;;;;768798;179;1008699;-63
2022/05/25 09:37:00;;;;;;;6.47;4.43;;;;;;;;;;771593;182;919329;-62
2022/05/25 09:39:26;;;;;;;5.07;2.60;;;;;;;;;;773712;182;919342;-62
2022/05/25 09:41:56;;;;;;;3.20;2.20;;;;;;;;;;769290;179;918803;-63
2022/05/25 09:44:21;;;;;;;2.90;2.23;;;;;;;;;;774891;177;918201;-63
2022/05/25 09:46:48;;;;;;;6.47;3.77;;;;;;;;;;775915;180;919232;-63
2022/05/25 09:49:15;;;;;;;3.90;2.80;;;;;;;;;;767478;180;919139;-62
2022/05/25 09:51:43;;;;;;;4.80;2.90;;;;;;;;;;762820;181;919318;-63
2022/05/25 09:54:12;;;;;;;4.00;3.00;;;;;;;;;;772626;179;918892;-63
2022/05/25 09:56:39;;;;;;;6.07;3.50;;;;;;;;;;775974;179;1575881;-63
2022/05/25 09:59:06;;;;;;;6.63;2.83;;;;;;;;;;764634;181;919676;-63
2022/05/25 10:01:32;;;;;;;5.40;3.00;;;;;;;;;;774191;181;920563;-63
2022/05/25 10:03:57;;;;;;;5.10;2.50;;;;;;;;;;776595;180;919742;-63
2022/05/25 10:06:24;;;;;;;5.03;3.20;;;;;;;;;;770651;180;918846;-64
2022/05/25 10:09:05;;;;;;;5.13;3.60;;;;;;;;;;764421;181;920016;-63
2022/05/25 10:11:33;;;;;;;6.50;5.10;;;;;;;;;;774052;180;816622;-62
2022/05/25 10:13:57;;;;;;;4.60;3.50;;;;;;;;;;766929;180;921544;-63
2022/05/25 10:16:24;;;;;;;5.60;4.10;;;;;;;;;;774188;180;919303;-62
2022/05/25 10:18:50;;;;;;;6.33;4.00;;;;;;;;;;767117;180;920643;-62
2022/05/25 10:21:31;;;;;;;4.87;3.57;;;;;;;;;;764801;177;925981;-62
2022/05/25 10:23:57;;;;;;;7.10;3.57;;;;;;;;;;768497;180;915645;-61
2022/05/25 10:26:31;;;;;;;8.60;6.07;;;;;;;;;;776145;180;617010;-61
2022/05/25 10:28:58;;;;;;;6.60;4.90;;;;;;;;;;774005;180;916825;-62
2022/05/25 10:39:09;;;;;;;5.07;4.13;;;;;;;;;;771300;178;920041;-62
2022/05/25 10:41:37;;;;;;;5.90;3.80;;;;;;;;;;771960;181;918653;-61
2022/05/25 10:44:03;;;;;;;8.43;4.30;;;;;;;;;;765510;181;919086;-62
2022/05/25 10:46:29;;;;;;;8.07;4.77;;;;;;;;;;765057;181;919565;-61
2022/05/25 10:48:55;;;;;;;9.07;5.10;;;;;;;;;;771351;181;919724;-63
2022/05/25 10:51:21;;;;;;;5.85;4.43;;;;;;;;;;770177;177;918450;-62
2022/05/25 10:54:44;;;;;;;5.13;4.43;;;;;;;;;;771256;177;919365;-62
2022/05/25 10:56:19;;;;;;;5.60;4.40;;;;;;;;;;763998;181;918016;-60
2022/05/25 10:59:01;;;;;;;9.77;6.50;;;;;;;;;;775648;181;919300;-61
2022/05/25 11:01:41;;;;;;;9.67;5.77;;;;;;;;;;771158;181;919383;-62
2022/05/25 11:04:08;;;;;;;8.17;6.27;;;;;;;;;;768046;178;919735;-62
2022/05/25 11:06:35;;;;;;;9.55;5.90;;;;;;;;;;764677;181;920464;-61
2022/05/25 11:09:01;;;;;;;6.37;5.40;;;;;;;;;;764792;181;919239;-62
2022/05/25 11:11:28;;;;;;;7.30;4.97;;;;;;;;;;777730;179;919372;-61
2022/05/25 11:13:55;;;;;;;6.33;5.23;;;;;;;;;;754104;181;919838;-61
2022/05/25 11:16:24;;;;;;;8.03;5.70;;;;;;;;;;765677;181;919071;-62
2022/05/25 11:18:50;;;;;;;6.07;4.87;;;;;;;;;;764808;181;919826;-60
2022/05/25 11:21:25;;;;;;;6.10;5.10;;;;;;;;;;771402;181;918843;-61
2022/05/25 11:23:54;;;;;;;6.47;5.40;;;;;;;;;;758541;181;919679;-61
2022/05/25 11:26:26;;;;;;;10.33;6.83;;;;;;;;;;768585;181;919748;-61
2022/05/25 11:29:03;;;;;;;7.23;5.60;;;;;;;;;;767352;180;919629;-60
2022/05/25 11:31:31;;;;;;;7.40;6.00;;;;;;;;;;767247;180;918945;-62
2022/05/25 11:33:58;;;;;;;6.93;4.63;;;;;;;;;;770536;179;916760;-61
2022/05/25 11:36:25;;;;;;;7.67;4.90;;;;;;;;;;764875;178;918728;-62
2022/05/25 11:39:08;;;;;;;5.70;3.97;;;;;;;;;;764724;180;920795;-61
2022/05/25 11:41:38;;;;;;;5.60;3.60;;;;;;;;;;766740;181;919820;-61
2022/05/25 11:44:10;;;;;;;7.43;3.37;;;;;;;;;;764602;180;920854;-61
2022/05/25 11:46:38;;;;;;;5.40;4.80;;;;;;;;;;771288;179;918226;-60
2022/05/25 11:49:06;;;;;;;7.68;4.10;;;;;;;;;;769134;180;919929;-60
2022/05/25 11:51:38;;;;;;;4.57;3.30;;;;;;;;;;760868;180;921537;-61
2022/05/25 11:54:08;;;;;;;6.68;4.60;;;;;;;;;;758926;177;975869;-60
2022/05/25 11:56:34;;;;;;;4.87;3.13;;;;;;;;;;776270;179;915747;-61
2022/05/25 11:59:01;;;;;;;5.83;3.20;;;;;;;;;;769341;177;918096;-61
2022/05/25 12:01:31;;;;;;;4.93;3.17;;;;;;;;;;768212;177;918762;-61
2022/05/25 12:04:00;;;;;;;6.90;4.27;;;;;;;;;;770246;177;919250;-61
2022/05/25 12:06:26;;;;;;;4.20;3.13;;;;;;;;;;773305;180;919108;-61
2022/05/25 12:08:52;;;;;;;9.57;3.90;;;;;;;;;;766052;177;918549;-60
2022/05/25 12:11:24;;;;;;;4.93;3.30;;;;;;;;;;764192;177;919371;-61
2022/05/25 12:13:51;;;;;;;19.23;4.97;;;;;;;;;;772740;178;919925;-60
2022/05/25 12:16:18;;;;;;;3.30;2.50;;;;;;;;;;771815;179;919654;-61
2022/05/25 12:19:00;;;;;;;3.00;2.20;;;;;;;;;;770106;178;918522;-62
2022/05/25 12:21:26;;;;;;;10.00;7.03;;;;;;;;;;765926;181;919639;-61
2022/05/25 12:23:52;;;;;;;7.00;4.18;;;;;;;;;;767299;177;918665;-61
2022/05/25 12:26:19;;;;;;;10.60;3.77;;;;;;;;;;773181;180;919426;-61
2022/05/25 12:28:45;;;;;;;3.00;2.10;;;;;;;;;;763669;178;918589;-61
2022/05/25 12:31:11;;;;;;;3.20;2.40;;;;;;;;;;765802;180;919548;-61
2022/05/25 12:33:37;;;;;;;4.07;2.85;;;;;;;;;;772413;179;920034;-60
2022/05/25 12:36:07;;;;;;;8.57;5.20;;;;;;;;;;773161;180;919396;-60
2022/05/25 12:38:29;;;;;;;4.33;3.37;;;;;;;;;;771165;178;919981;-60
2022/05/25 12:40:55;;;;;;;4.97;3.73;;;;;;;;;;766511;178;919323;-60
2022/05/25 12:43:27;;;;;;;5.80;3.77;;;;;;;;;;770731;180;919113;-60
2022/05/25 12:50:57;;;;;;;8.82;4.00;;;;;;;;;;765672;177;919898;-60
2022/05/25 12:53:39;;;;;;;4.80;3.47;;;;;;;;;;773247;180;1043210;-59
2022/05/25 12:56:11;;;;;;;5.93;4.43;;;;;;;;;;772740;179;918668;-60
2022/05/25 12:58:35;;;;;;;6.03;4.65;;;;;;;;;;773703;178;919632;-61
2022/05/25 13:01:01;;;;;;;4.80;3.93;;;;;;;;;;768221;177;919988;-60
2022/05/25 13:03:34;;;;;;;7.03;5.23;;;;;;;;;;766162;178;919797;-60
2022/05/25 13:05:59;;;;;;;6.33;4.87;;;;;;;;;;772141;177;918269;-60
2022/05/25 13:08:45;;;;;;;6.47;5.53;;;;;;;;;;766725;177;919021;-60
2022/05/25 13:11:10;;;;;;;6.80;4.63;;;;;;;;;;771723;177;919046;-61
2022/05/25 13:13:36;;;;;;;7.37;6.00;;;;;;;;;;769369;179;947089;-62
2022/05/25 13:16:03;;;;;;;7.28;5.43;;;;;;;;;;764350;180;969189;-61
2022/05/25 13:18:44;;;;;;;8.60;5.80;;;;;;;;;;775538;179;652406;-62
2022/05/25 13:21:09;;;;;;;10.27;7.77;;;;;;;;;;778640;181;627321;-61
2022/05/25 13:23:41;;;;;;;11.60;6.60;;;;;;;;;;767872;181;635862;-62
2022/05/25 13:26:07;;;;;;;10.07;7.23;;;;;;;;;;772475;177;700705;-61
2022/05/25 13:28:35;;;;;;;15.80;6.50;;;;;;;;;;774525;179;911468;-61
2022/05/25 13:31:05;;;;;;;6.70;6.00;;;;;;;;;;769119;177;725341;-62
2022/05/25 13:33:36;;;;;;;11.07;8.40;;;;;;;;;;766413;183;630805;-63
2022/05/25 13:36:05;;;;;;;9.50;8.20;;;;;;;;;;770648;178;635175;-62
2022/05/25 13:38:49;;;;;;;10.03;6.40;;;;;;;;;;771172;178;624495;-62
2022/05/25 13:41:24;;;;;;;7.50;6.10;;;;;;;;;;765795;181;617372;-62
2022/05/25 13:43:56;;;;;;;8.27;6.47;;;;;;;;;;776093;180;635549;-62
2022/05/25 13:46:26;;;;;;;11.27;7.97;;;;;;;;;;761563;180;628624;-61
2022/05/25 13:48:52;;;;;;;6.67;5.47;;;;;;;;;;776491;180;628197;-61
2022/05/25 13:51:19;;;;;;;8.27;6.10;;;;;;;;;;762989;178;636665;-63
2022/05/25 13:53:45;;;;;;;9.90;8.07;;;;;;;;;;776851;180;617893;-62
2022/05/25 13:56:11;;;;;;;9.80;7.70;;;;;;;;;;776089;180;619083;-63
2022/05/25 13:58:37;;;;;;;7.67;5.13;;;;;;;;;;776751;180;627135;-63
2022/05/25 14:01:04;;;;;;;6.27;4.50;;;;;;;;;;768420;180;615465;-61
2022/05/25 14:03:31;;;;;;;10.73;6.03;;;;;;;;;;767520;180;614456;-63
2022/05/25 14:05:56;;;;;;;14.23;11.33;;;;;;;;;;768597;181;640299;-62
2022/05/25 14:08:22;;;;;;;12.17;10.97;;;;;;;;;;772922;181;633367;-62
2022/05/25 14:10:54;;;;;;;18.83;16.07;;;;;;;;;;776628;180;727631;-65
2022/05/25 14:13:23;;;;;;;7.73;6.93;;;;;;;;;;770639;178;631746;-62
2022/05/25 14:15:53;;;;;;;15.67;14.17;;;;;;;;;;770598;181;629854;-63
2022/05/25 14:18:19;;;;;;;11.00;8.77;;;;;;;;;;771608;181;628573;-63
2022/05/25 14:20:45;;;;;;;15.60;13.93;;;;;;;;;;772009;180;673007;-63
2022/05/25 14:23:11;;;;;;;10.37;9.43;;;;;;;;;;768436;184;619012;-63
2022/05/25 14:25:37;;;;;;;9.73;8.40;;;;;;;;;;770068;183;708994;-63
2022/05/25 14:28:04;;;;;;;12.20;10.63;;;;;;;;;;772596;181;625658;-64
2022/05/25 14:30:28;;;;;;;9.10;8.20;;;;;;;;;;772729;180;639490;-63
2022/05/25 14:33:01;;;;;;;9.00;7.33;;;;;;;;;;774524;180;625743;-63
2022/05/25 14:35:27;;;;;;;8.17;7.37;;;;;;;;;;773557;181;632873;-63
2022/05/25 14:37:53;;;;;;;9.17;7.80;;;;;;;;;;776827;179;638613;-63
2022/05/25 14:40:19;;;;;;;15.87;12.70;;;;;;;;;;774042;180;919432;-63
2022/05/25 14:42:49;;;;;;;13.70;12.27;;;;;;;;;;774081;182;621904;-65
2022/05/25 14:45:16;;;;;;;13.73;11.80;;;;;;;;;;773502;177;698997;-63